sensor_id;sensor_type;location;lat;lon;timestamp;pressure;altitude;pressure_sealevel;temperature;humidity
58018;BME280;43810;50.860;19.226;2022-12-11T00:00:31;97583.03;;;-0.40;92.25
58018;BME280;43810;50.860;19.226;2022-12-11T00:03:17;97580.88;;;-0.38;92.47
58018;BME280;43810;50.860;19.226;2022-12-11T00:05:44;97584.00;;;-0.36;92.29
58018;BME280;43810;50.860;19.226;2022-12-11T00:08:10;97577.16;;;-0.32;92.50
58018;BME280;43810;50.860;19.226;2022-12-11T00:10:37;97581.47;;;-0.41;92.28
58018;BME280;43810;50.860;19.226;2022-12-11T00:13:03;97573.56;;;-0.36;91.92
58018;BME280;43810;50.860;19.226;2022-12-11T00:15:28;97573.91;;;-0.42;92.35
58018;BME280;43810;50.860;19.226;2022-12-11T00:17:54;97573.34;;;-0.39;92.29
58018;BME280;43810;50.860;19.226;2022-12-11T00:20:20;97575.47;;;-0.41;92.41
58018;BME280;43810;50.860;19.226;2022-12-11T00:22:46;97583.22;;;-0.36;92.50
58018;BME280;43810;50.860;19.226;2022-12-11T00:25:12;97580.78;;;-0.28;91.96
58018;BME280;43810;50.860;19.226;2022-12-11T00:27:38;97577.56;;;-0.25;92.10
58018;BME280;43810;50.860;19.226;2022-12-11T00:30:04;97579.91;;;-0.42;92.01
58018;BME280;43810;50.860;19.226;2022-12-11T00:32:30;97572.09;;;-0.42;92.11
58018;BME280;43810;50.860;19.226;2022-12-11T00:34:56;97583.56;;;-0.43;92.11
58018;BME280;43810;50.860;19.226;2022-12-11T00:37:23;97567.19;;;-0.49;92.32
58018;BME280;43810;50.860;19.226;2022-12-11T00:39:48;97560.91;;;-0.48;92.35
58018;BME280;43810;50.860;19.226;2022-12-11T00:42:14;97549.94;;;-0.44;92.14
58018;BME280;43810;50.860;19.226;2022-12-11T00:44:40;97545.25;;;-0.48;92.24
58018;BME280;43810;50.860;19.226;2022-12-11T00:47:06;97537.66;;;-0.63;92.33
58018;BME280;43810;50.860;19.226;2022-12-11T00:49:32;97534.28;;;-0.63;92.65
58018;BME280;43810;50.860;19.226;2022-12-11T00:51:58;97529.53;;;-0.61;92.50
58018;BME280;43810;50.860;19.226;2022-12-11T00:54:24;97534.41;;;-0.55;92.66
58018;BME280;43810;50.860;19.226;2022-12-11T00:56:50;97527.50;;;-0.46;92.45
58018;BME280;43810;50.860;19.226;2022-12-11T00:59:16;97530.47;;;-0.52;92.27
58018;BME280;43810;50.860;19.226;2022-12-11T01:01:41;97534.81;;;-0.48;92.27
58018;BME280;43810;50.860;19.226;2022-12-11T01:04:07;97528.56;;;-0.47;91.95
58018;BME280;43810;50.860;19.226;2022-12-11T01:06:33;97535.47;;;-0.56;92.19
58018;BME280;43810;50.860;19.226;2022-12-11T01:08:58;97525.66;;;-0.64;92.06
58018;BME280;43810;50.860;19.226;2022-12-11T01:11:43;97523.97;;;-0.55;91.88
58018;BME280;43810;50.860;19.226;2022-12-11T01:14:12;97522.94;;;-0.54;91.66
58018;BME280;43810;50.860;19.226;2022-12-11T01:16:38;97524.75;;;-0.54;91.94
58018;BME280;43810;50.860;19.226;2022-12-11T01:19:03;97524.41;;;-0.48;91.31
58018;BME280;43810;50.860;19.226;2022-12-11T01:21:29;97537.81;;;-0.54;91.19
58018;BME280;43810;50.860;19.226;2022-12-11T01:23:55;97531.09;;;-0.60;91.27
58018;BME280;43810;50.860;19.226;2022-12-11T01:26:21;97527.13;;;-0.58;91.23
58018;BME280;43810;50.860;19.226;2022-12-11T01:28:49;97533.59;;;-0.50;91.31
58018;BME280;43810;50.860;19.226;2022-12-11T01:31:17;97533.84;;;-0.52;90.88
58018;BME280;43810;50.860;19.226;2022-12-11T01:33:43;97532.09;;;-0.56;90.76
58018;BME280;43810;50.860;19.226;2022-12-11T01:36:20;97536.66;;;-0.67;91.19
58018;BME280;43810;50.860;19.226;2022-12-11T01:38:46;97522.28;;;-0.64;91.24
58018;BME280;43810;50.860;19.226;2022-12-11T01:41:13;97517.84;;;-0.64;91.48
58018;BME280;43810;50.860;19.226;2022-12-11T01:45:00;97521.09;;;-0.53;91.44
58018;BME280;43810;50.860;19.226;2022-12-11T01:46:43;97515.56;;;-0.70;91.50
58018;BME280;43810;50.860;19.226;2022-12-11T01:49:12;97507.97;;;-0.67;91.47
58018;BME280;43810;50.860;19.226;2022-12-11T01:51:41;97514.78;;;-0.71;91.50
58018;BME280;43810;50.860;19.226;2022-12-11T01:54:11;97499.00;;;-0.79;92.17
58018;BME280;43810;50.860;19.226;2022-12-11T01:56:39;97505.13;;;-0.70;91.86
58018;BME280;43810;50.860;19.226;2022-12-11T01:59:07;97504.81;;;-0.64;91.79
58018;BME280;43810;50.860;19.226;2022-12-11T02:01:39;97508.38;;;-0.78;92.01
58018;BME280;43810;50.860;19.226;2022-12-11T02:04:08;97510.50;;;-0.80;91.53
58018;BME280;43810;50.860;19.226;2022-12-11T02:06:41;97509.84;;;-0.72;91.56
58018;BME280;43810;50.860;19.226;2022-12-11T02:09:11;97512.00;;;-0.74;91.31
58018;BME280;43810;50.860;19.226;2022-12-11T02:11:51;97518.66;;;-0.87;91.80
58018;BME280;43810;50.860;19.226;2022-12-11T02:14:44;97506.69;;;-0.88;91.82
58018;BME280;43810;50.860;19.226;2022-12-11T02:25:49;97510.53;;;-0.62;90.80
58018;BME280;43810;50.860;19.226;2022-12-11T02:28:24;97510.34;;;-0.70;91.07
58018;BME280;43810;50.860;19.226;2022-12-11T02:30:57;97518.75;;;-0.73;91.28
58018;BME280;43810;50.860;19.226;2022-12-11T02:33:35;97511.56;;;-0.63;91.03
58018;BME280;43810;50.860;19.226;2022-12-11T02:36:04;97512.47;;;-0.72;90.67
58018;BME280;43810;50.860;19.226;2022-12-11T02:38:35;97515.81;;;-0.91;91.19
58018;BME280;43810;50.860;19.226;2022-12-11T02:41:04;97517.75;;;-0.96;91.54
58018;BME280;43810;50.860;19.226;2022-12-11T02:43:33;97520.28;;;-0.91;91.85
58018;BME280;43810;50.860;19.226;2022-12-11T02:46:02;97509.06;;;-0.92;91.71
58018;BME280;43810;50.860;19.226;2022-12-11T02:48:29;97504.06;;;-0.88;91.67
58018;BME280;43810;50.860;19.226;2022-12-11T02:50:57;97502.34;;;-0.74;91.52
58018;BME280;43810;50.860;19.226;2022-12-11T02:53:28;97502.75;;;-0.67;90.97
58018;BME280;43810;50.860;19.226;2022-12-11T02:56:21;97505.28;;;-0.80;90.94
58018;BME280;43810;50.860;19.226;2022-12-11T02:58:48;97504.28;;;-0.85;91.19
58018;BME280;43810;50.860;19.226;2022-12-11T03:01:15;97504.00;;;-0.83;91.27
58018;BME280;43810;50.860;19.226;2022-12-11T03:03:41;97493.78;;;-0.79;91.11
58018;BME280;43810;50.860;19.226;2022-12-11T03:06:09;97495.25;;;-0.92;91.45
58018;BME280;43810;50.860;19.226;2022-12-11T03:08:38;97496.38;;;-0.98;91.76
58018;BME280;43810;50.860;19.226;2022-12-11T03:11:04;97497.34;;;-0.94;91.81
58018;BME280;43810;50.860;19.226;2022-12-11T03:13:30;97493.78;;;-0.98;91.84
58018;BME280;43810;50.860;19.226;2022-12-11T03:19:10;97492.31;;;-0.86;91.53
58018;BME280;43810;50.860;19.226;2022-12-11T03:21:43;97481.94;;;-0.91;91.54
58018;BME280;43810;50.860;19.226;2022-12-11T03:24:14;97487.66;;;-0.89;91.45
58018;BME280;43810;50.860;19.226;2022-12-11T03:26:50;97483.13;;;-1.02;91.23
58018;BME280;43810;50.860;19.226;2022-12-11T03:29:22;97482.50;;;-0.94;91.75
58018;BME280;43810;50.860;19.226;2022-12-11T03:32:06;97487.66;;;-0.89;91.48
58018;BME280;43810;50.860;19.226;2022-12-11T03:34:41;97486.16;;;-0.95;91.75
58018;BME280;43810;50.860;19.226;2022-12-11T03:37:10;97485.09;;;-0.94;91.58
58018;BME280;43810;50.860;19.226;2022-12-11T03:39:41;97487.38;;;-0.87;91.53
58018;BME280;43810;50.860;19.226;2022-12-11T03:42:11;97494.84;;;-0.80;91.58
58018;BME280;43810;50.860;19.226;2022-12-11T03:44:38;97496.53;;;-0.90;91.41
58018;BME280;43810;50.860;19.226;2022-12-11T03:47:07;97491.66;;;-0.96;91.71
58018;BME280;43810;50.860;19.226;2022-12-11T03:49:37;97490.03;;;-0.92;91.80
58018;BME280;43810;50.860;19.226;2022-12-11T03:52:05;97490.59;;;-0.95;91.94
58018;BME280;43810;50.860;19.226;2022-12-11T03:54:33;97497.03;;;-0.88;91.93
58018;BME280;43810;50.860;19.226;2022-12-11T03:57:01;97487.38;;;-0.87;91.69
58018;BME280;43810;50.860;19.226;2022-12-11T03:59:28;97498.09;;;-0.89;91.60
58018;BME280;43810;50.860;19.226;2022-12-11T04:01:54;97499.75;;;-0.98;91.75
58018;BME280;43810;50.860;19.226;2022-12-11T04:04:20;97488.28;;;-0.97;91.80
58018;BME280;43810;50.860;19.226;2022-12-11T04:06:45;97475.81;;;-1.00;91.93
58018;BME280;43810;50.860;19.226;2022-12-11T04:09:11;97479.38;;;-0.96;91.82
58018;BME280;43810;50.860;19.226;2022-12-11T04:11:37;97474.81;;;-1.04;91.55
58018;BME280;43810;50.860;19.226;2022-12-11T04:14:06;97482.84;;;-1.00;91.87
58018;BME280;43810;50.860;19.226;2022-12-11T04:16:51;97471.56;;;-0.96;91.59
58018;BME280;43810;50.860;19.226;2022-12-11T04:19:18;97464.59;;;-1.00;91.56
58018;BME280;43810;50.860;19.226;2022-12-11T04:22:03;97471.38;;;-0.80;91.05
58018;BME280;43810;50.860;19.226;2022-12-11T04:24:48;97471.00;;;-0.93;90.96
58018;BME280;43810;50.860;19.226;2022-12-11T04:27:15;97463.63;;;-0.86;90.97
58018;BME280;43810;50.860;19.226;2022-12-11T04:30:02;97463.00;;;-0.96;90.89
58018;BME280;43810;50.860;19.226;2022-12-11T04:32:28;97467.06;;;-0.90;90.82
58018;BME280;43810;50.860;19.226;2022-12-11T04:34:54;97467.47;;;-1.02;90.92
58018;BME280;43810;50.860;19.226;2022-12-11T04:37:19;97467.75;;;-1.03;90.93
58018;BME280;43810;50.860;19.226;2022-12-11T04:39:45;97463.31;;;-1.03;90.96
58018;BME280;43810;50.860;19.226;2022-12-11T04:42:11;97454.44;;;-1.02;91.04
58018;BME280;43810;50.860;19.226;2022-12-11T04:44:36;97465.22;;;-1.08;91.12
58018;BME280;43810;50.860;19.226;2022-12-11T04:47:02;97459.72;;;-1.07;91.38
58018;BME280;43810;50.860;19.226;2022-12-11T04:49:28;97470.31;;;-0.98;91.46
58018;BME280;43810;50.860;19.226;2022-12-11T04:51:54;97478.31;;;-0.95;91.43
58018;BME280;43810;50.860;19.226;2022-12-11T04:54:19;97465.59;;;-0.96;90.94
58018;BME280;43810;50.860;19.226;2022-12-11T04:56:45;97464.38;;;-1.04;90.70
58018;BME280;43810;50.860;19.226;2022-12-11T04:59:11;97446.81;;;-1.17;91.20
58018;BME280;43810;50.860;19.226;2022-12-11T05:01:36;97454.84;;;-1.13;91.01
58018;BME280;43810;50.860;19.226;2022-12-11T05:04:02;97450.91;;;-1.11;90.92
58018;BME280;43810;50.860;19.226;2022-12-11T05:06:28;97449.53;;;-1.27;90.90
58018;BME280;43810;50.860;19.226;2022-12-11T05:08:54;97447.00;;;-1.32;91.27
58018;BME280;43810;50.860;19.226;2022-12-11T05:11:19;97435.53;;;-1.31;91.68
58018;BME280;43810;50.860;19.226;2022-12-11T05:13:45;97438.78;;;-1.21;91.66
58018;BME280;43810;50.860;19.226;2022-12-11T05:16:13;97439.34;;;-1.24;91.40
58018;BME280;43810;50.860;19.226;2022-12-11T05:18:40;97433.59;;;-1.21;91.50
58018;BME280;43810;50.860;19.226;2022-12-11T05:21:09;97439.84;;;-1.22;91.36
58018;BME280;43810;50.860;19.226;2022-12-11T05:23:35;97428.28;;;-1.15;91.46
58018;BME280;43810;50.860;19.226;2022-12-11T05:26:04;97439.44;;;-1.10;90.86
58018;BME280;43810;50.860;19.226;2022-12-11T05:28:32;97436.38;;;-1.17;90.82
58018;BME280;43810;50.860;19.226;2022-12-11T05:31:03;97432.31;;;-1.23;91.07
58018;BME280;43810;50.860;19.226;2022-12-11T05:33:30;97438.56;;;-1.24;91.04
58018;BME280;43810;50.860;19.226;2022-12-11T05:35:56;97428.91;;;-1.24;90.84
58018;BME280;43810;50.860;19.226;2022-12-11T05:38:23;97425.47;;;-1.19;90.78
58018;BME280;43810;50.860;19.226;2022-12-11T05:41:00;97426.03;;;-1.22;90.74
58018;BME280;43810;50.860;19.226;2022-12-11T05:43:28;97419.91;;;-1.31;90.93
58018;BME280;43810;50.860;19.226;2022-12-11T05:45:54;97432.84;;;-1.26;90.81
58018;BME280;43810;50.860;19.226;2022-12-11T05:48:20;97422.97;;;-1.29;90.86
58018;BME280;43810;50.860;19.226;2022-12-11T05:50:59;97431.03;;;-1.26;90.96
58018;BME280;43810;50.860;19.226;2022-12-11T05:53:25;97423.25;;;-1.31;90.89
58018;BME280;43810;50.860;19.226;2022-12-11T05:55:51;97424.53;;;-1.28;90.88
58018;BME280;43810;50.860;19.226;2022-12-11T05:58:19;97411.00;;;-1.30;91.03
58018;BME280;43810;50.860;19.226;2022-12-11T06:00:45;97411.72;;;-1.25;90.81
58018;BME280;43810;50.860;19.226;2022-12-11T06:03:12;97417.31;;;-1.31;90.50
58018;BME280;43810;50.860;19.226;2022-12-11T06:05:38;97418.63;;;-1.34;90.41
58018;BME280;43810;50.860;19.226;2022-12-11T06:08:05;97417.38;;;-1.41;90.65
58018;BME280;43810;50.860;19.226;2022-12-11T06:10:30;97423.78;;;-1.52;90.75
58018;BME280;43810;50.860;19.226;2022-12-11T06:12:56;97425.00;;;-1.45;91.22
58018;BME280;43810;50.860;19.226;2022-12-11T06:15:22;97426.84;;;-1.45;90.93
58018;BME280;43810;50.860;19.226;2022-12-11T06:17:48;97422.84;;;-1.38;90.79
58018;BME280;43810;50.860;19.226;2022-12-11T06:20:14;97430.09;;;-1.35;90.54
58018;BME280;43810;50.860;19.226;2022-12-11T06:22:39;97435.03;;;-1.33;90.42
58018;BME280;43810;50.860;19.226;2022-12-11T06:25:06;97432.75;;;-1.40;90.63
58018;BME280;43810;50.860;19.226;2022-12-11T06:27:32;97435.81;;;-1.33;90.47
58018;BME280;43810;50.860;19.226;2022-12-11T06:29:57;97428.78;;;-1.32;90.28
58018;BME280;43810;50.860;19.226;2022-12-11T06:32:23;97432.44;;;-1.33;90.68
58018;BME280;43810;50.860;19.226;2022-12-11T06:34:49;97422.78;;;-1.33;90.13
58018;BME280;43810;50.860;19.226;2022-12-11T06:37:15;97436.88;;;-1.34;90.27
58018;BME280;43810;50.860;19.226;2022-12-11T06:39:41;97431.78;;;-1.44;89.98
58018;BME280;43810;50.860;19.226;2022-12-11T06:42:07;97436.78;;;-1.52;90.38
58018;BME280;43810;50.860;19.226;2022-12-11T06:44:32;97432.03;;;-1.45;90.49
58018;BME280;43810;50.860;19.226;2022-12-11T06:46:58;97430.00;;;-1.48;90.82
58018;BME280;43810;50.860;19.226;2022-12-11T06:49:24;97436.38;;;-1.60;91.03
58018;BME280;43810;50.860;19.226;2022-12-11T06:51:50;97441.34;;;-1.63;91.02
58018;BME280;43810;50.860;19.226;2022-12-11T06:54:15;97437.66;;;-1.57;90.48
58018;BME280;43810;50.860;19.226;2022-12-11T06:56:41;97434.09;;;-1.66;90.63
58018;BME280;43810;50.860;19.226;2022-12-11T06:59:10;97428.94;;;-1.71;90.62
58018;BME280;43810;50.860;19.226;2022-12-11T07:01:37;97441.53;;;-1.78;90.88
58018;BME280;43810;50.860;19.226;2022-12-11T07:04:03;97441.63;;;-1.65;91.06
58018;BME280;43810;50.860;19.226;2022-12-11T07:06:29;97450.13;;;-1.54;90.55
58018;BME280;43810;50.860;19.226;2022-12-11T07:08:55;97453.44;;;-1.48;90.25
58018;BME280;43810;50.860;19.226;2022-12-11T07:11:21;97445.66;;;-1.53;89.83
58018;BME280;43810;50.860;19.226;2022-12-11T07:13:47;97449.72;;;-1.66;89.92
58018;BME280;43810;50.860;19.226;2022-12-11T07:16:14;97444.72;;;-1.63;89.95
58018;BME280;43810;50.860;19.226;2022-12-11T07:18:43;97442.13;;;-1.63;89.96
58018;BME280;43810;50.860;19.226;2022-12-11T07:21:12;97441.56;;;-1.60;90.29
58018;BME280;43810;50.860;19.226;2022-12-11T07:23:39;97439.47;;;-1.58;89.88
58018;BME280;43810;50.860;19.226;2022-12-11T07:26:07;97447.22;;;-1.52;89.39
58018;BME280;43810;50.860;19.226;2022-12-11T07:28:34;97436.59;;;-1.56;89.15
58018;BME280;43810;50.860;19.226;2022-12-11T07:31:07;97441.56;;;-1.60;88.96
58018;BME280;43810;50.860;19.226;2022-12-11T07:33:35;97441.06;;;-1.62;89.16
58018;BME280;43810;50.860;19.226;2022-12-11T07:36:03;97429.38;;;-1.64;89.17
58018;BME280;43810;50.860;19.226;2022-12-11T07:38:29;97434.03;;;-1.61;89.01
58018;BME280;43810;50.860;19.226;2022-12-11T07:40:58;97430.16;;;-1.64;89.04
58018;BME280;43810;50.860;19.226;2022-12-11T07:43:24;97430.22;;;-1.69;89.21
58018;BME280;43810;50.860;19.226;2022-12-11T07:45:50;97426.06;;;-1.70;89.03
58018;BME280;43810;50.860;19.226;2022-12-11T07:48:16;97429.75;;;-1.76;89.44
58018;BME280;43810;50.860;19.226;2022-12-11T07:50:42;97438.63;;;-1.77;89.50
58018;BME280;43810;50.860;19.226;2022-12-11T07:53:07;97433.88;;;-1.70;89.33
58018;BME280;43810;50.860;19.226;2022-12-11T07:55:33;97439.78;;;-1.64;88.82
58018;BME280;43810;50.860;19.226;2022-12-11T07:57:59;97439.78;;;-1.64;89.07
58018;BME280;43810;50.860;19.226;2022-12-11T08:00:25;97449.66;;;-1.61;88.58
58018;BME280;43810;50.860;19.226;2022-12-11T08:02:50;97450.00;;;-1.68;88.55
58018;BME280;43810;50.860;19.226;2022-12-11T08:05:17;97454.97;;;-1.71;88.17
58018;BME280;43810;50.860;19.226;2022-12-11T08:07:42;97447.78;;;-1.79;88.46
58018;BME280;43810;50.860;19.226;2022-12-11T08:10:08;97455.25;;;-1.73;88.64
58018;BME280;43810;50.860;19.226;2022-12-11T08:12:34;97455.47;;;-1.69;88.17
58018;BME280;43810;50.860;19.226;2022-12-11T08:15:00;97452.34;;;-1.66;88.13
58018;BME280;43810;50.860;19.226;2022-12-11T08:17:26;97454.94;;;-1.66;88.01
58018;BME280;43810;50.860;19.226;2022-12-11T08:19:52;97464.84;;;-1.68;88.10
58018;BME280;43810;50.860;19.226;2022-12-11T08:22:17;97455.22;;;-1.68;88.09
58018;BME280;43810;50.860;19.226;2022-12-11T08:24:43;97459.63;;;-1.68;87.97
58018;BME280;43810;50.860;19.226;2022-12-11T08:27:10;97453.38;;;-1.67;87.79
58018;BME280;43810;50.860;19.226;2022-12-11T08:29:36;97452.13;;;-1.75;88.32
58018;BME280;43810;50.860;19.226;2022-12-11T08:32:02;97448.44;;;-1.69;88.19
58018;BME280;43810;50.860;19.226;2022-12-11T08:34:28;97448.09;;;-1.62;88.04
58018;BME280;43810;50.860;19.226;2022-12-11T08:36:54;97456.16;;;-1.59;88.20
58018;BME280;43810;50.860;19.226;2022-12-11T08:39:20;97453.28;;;-1.57;87.96
58018;BME280;43810;50.860;19.226;2022-12-11T08:41:45;97452.88;;;-1.45;87.64
58018;BME280;43810;50.860;19.226;2022-12-11T08:44:12;97457.16;;;-1.54;87.31
58018;BME280;43810;50.860;19.226;2022-12-11T08:46:38;97446.88;;;-1.70;87.90
58018;BME280;43810;50.860;19.226;2022-12-11T08:49:04;97458.41;;;-1.76;87.34
58018;BME280;43810;50.860;19.226;2022-12-11T08:51:30;97461.09;;;-1.86;88.04
58018;BME280;43810;50.860;19.226;2022-12-11T08:53:57;97456.66;;;-1.85;88.12
58018;BME280;43810;50.860;19.226;2022-12-11T08:56:23;97455.31;;;-1.78;88.05
58018;BME280;43810;50.860;19.226;2022-12-11T08:58:50;97455.53;;;-1.74;87.72
58018;BME280;43810;50.860;19.226;2022-12-11T09:01:19;97457.84;;;-1.73;87.65
58018;BME280;43810;50.860;19.226;2022-12-11T09:03:47;97454.53;;;-1.78;87.60
58018;BME280;43810;50.860;19.226;2022-12-11T09:06:16;97450.66;;;-1.81;88.19
58018;BME280;43810;50.860;19.226;2022-12-11T09:08:44;97447.50;;;-1.78;88.00
58018;BME280;43810;50.860;19.226;2022-12-11T09:11:12;97446.94;;;-1.75;87.81
58018;BME280;43810;50.860;19.226;2022-12-11T09:13:39;97446.88;;;-1.70;87.41
58018;BME280;43810;50.860;19.226;2022-12-11T09:16:14;97449.00;;;-1.72;87.38
58018;BME280;43810;50.860;19.226;2022-12-11T09:18:40;97444.56;;;-1.71;87.61
58018;BME280;43810;50.860;19.226;2022-12-11T09:21:09;97451.59;;;-1.72;87.11
58018;BME280;43810;50.860;19.226;2022-12-11T09:23:35;97446.72;;;-1.78;87.14
58018;BME280;43810;50.860;19.226;2022-12-11T09:26:06;97432.47;;;-1.86;87.53
58018;BME280;43810;50.860;19.226;2022-12-11T09:28:33;97418.94;;;-1.88;87.39
58018;BME280;43810;50.860;19.226;2022-12-11T09:30:59;97429.34;;;-1.88;87.29
58018;BME280;43810;50.860;19.226;2022-12-11T09:33:25;97430.44;;;-1.89;87.51
58018;BME280;43810;50.860;19.226;2022-12-11T09:36:00;97425.50;;;-1.90;87.13
58018;BME280;43810;50.860;19.226;2022-12-11T09:38:27;97429.34;;;-1.88;87.03
58018;BME280;43810;50.860;19.226;2022-12-11T09:40:53;97417.13;;;-1.87;87.48
58018;BME280;43810;50.860;19.226;2022-12-11T09:43:41;97419.13;;;-1.79;87.27
58018;BME280;43810;50.860;19.226;2022-12-11T09:46:12;97419.91;;;-1.79;86.77
58018;BME280;43810;50.860;19.226;2022-12-11T09:48:41;97420.38;;;-1.77;86.86
58018;BME280;43810;50.860;19.226;2022-12-11T09:51:20;97415.66;;;-1.70;87.09
58018;BME280;43810;50.860;19.226;2022-12-11T09:53:49;97407.31;;;-1.72;86.81
58018;BME280;43810;50.860;19.226;2022-12-11T09:58:51;97412.19;;;-1.65;86.97
58018;BME280;43810;50.860;19.226;2022-12-11T10:07:04;97385.56;;;-1.57;86.46
58018;BME280;43810;50.860;19.226;2022-12-11T10:15:29;97398.78;;;-1.53;86.49
58018;BME280;43810;50.860;19.226;2022-12-11T10:17:58;97391.97;;;-1.49;86.22
58018;BME280;43810;50.860;19.226;2022-12-11T10:20:32;97389.03;;;-1.43;86.57
58018;BME280;43810;50.860;19.226;2022-12-11T10:23:22;97398.56;;;-1.33;86.17
58018;BME280;43810;50.860;19.226;2022-12-11T10:26:10;97390.66;;;-1.28;86.14
58018;BME280;43810;50.860;19.226;2022-12-11T10:28:37;97387.09;;;-1.32;85.56
58018;BME280;43810;50.860;19.226;2022-12-11T10:31:14;97390.47;;;-1.32;85.85
58018;BME280;43810;50.860;19.226;2022-12-11T10:36:34;97384.47;;;-1.32;85.46
58018;BME280;43810;50.860;19.226;2022-12-11T10:39:02;97382.28;;;-1.25;85.70
58018;BME280;43810;50.860;19.226;2022-12-11T10:41:41;97388.50;;;-1.21;85.70
58018;BME280;43810;50.860;19.226;2022-12-11T10:47:16;97379.75;;;-1.30;85.70
58018;BME280;43810;50.860;19.226;2022-12-11T10:49:54;97382.44;;;-1.35;85.68
58018;BME280;43810;50.860;19.226;2022-12-11T10:52:31;97374.53;;;-1.30;85.36
58018;BME280;43810;50.860;19.226;2022-12-11T10:55:00;97368.53;;;-1.31;85.29
58018;BME280;43810;50.860;19.226;2022-12-11T10:57:33;97368.34;;;-1.34;85.25
58018;BME280;43810;50.860;19.226;2022-12-11T11:00:00;97363.41;;;-1.36;85.30
58018;BME280;43810;50.860;19.226;2022-12-11T11:02:40;97369.94;;;-1.38;85.25
58018;BME280;43810;50.860;19.226;2022-12-11T11:05:13;97367.91;;;-1.41;85.61
58018;BME280;43810;50.860;19.226;2022-12-11T11:07:40;97363.78;;;-1.42;85.41
58018;BME280;43810;50.860;19.226;2022-12-11T11:12:40;97348.97;;;-1.28;85.58
58018;BME280;43810;50.860;19.226;2022-12-11T11:15:15;97351.09;;;-1.30;85.20
58018;BME280;43810;50.860;19.226;2022-12-11T11:17:50;97339.41;;;-1.33;85.40
58018;BME280;43810;50.860;19.226;2022-12-11T11:20:22;97332.28;;;-1.46;85.15
58018;BME280;43810;50.860;19.226;2022-12-11T11:22:49;97330.59;;;-1.56;85.77
58018;BME280;43810;50.860;19.226;2022-12-11T11:25:18;97320.59;;;-1.48;85.84
58018;BME280;43810;50.860;19.226;2022-12-11T11:28:05;97337.97;;;-1.63;85.76
58018;BME280;43810;50.860;19.226;2022-12-11T11:30:38;97337.19;;;-1.63;85.76
58018;BME280;43810;50.860;19.226;2022-12-11T11:33:19;97332.75;;;-1.63;85.61
58018;BME280;43810;50.860;19.226;2022-12-11T11:36:36;97328.88;;;-1.65;86.29
58018;BME280;43810;50.860;19.226;2022-12-11T11:38:45;97326.84;;;-1.68;85.88
58018;BME280;43810;50.860;19.226;2022-12-11T11:41:20;97324.59;;;-1.56;85.98
58018;BME280;43810;50.860;19.226;2022-12-11T11:43:50;97307.03;;;-1.45;85.95
58018;BME280;43810;50.860;19.226;2022-12-11T11:46:28;97312.41;;;-1.42;85.42
58018;BME280;43810;50.860;19.226;2022-12-11T11:49:04;97300.47;;;-1.43;85.42
58018;BME280;43810;50.860;19.226;2022-12-11T11:54:19;97302.63;;;-1.50;85.48
58018;BME280;43810;50.860;19.226;2022-12-11T11:56:45;97294.75;;;-1.64;85.27
58018;BME280;43810;50.860;19.226;2022-12-11T12:01:52;97285.00;;;-1.77;85.18
58018;BME280;43810;50.860;19.226;2022-12-11T12:04:19;97301.75;;;-1.83;85.26
58018;BME280;43810;50.860;19.226;2022-12-11T12:06:54;97308.00;;;-1.84;85.84
58018;BME280;43810;50.860;19.226;2022-12-11T12:12:37;97302.91;;;-1.70;85.55
58018;BME280;43810;50.860;19.226;2022-12-11T12:15:20;97315.38;;;-1.67;85.39
58018;BME280;43810;50.860;19.226;2022-12-11T12:21:11;97310.00;;;-1.76;85.71
58018;BME280;43810;50.860;19.226;2022-12-11T12:24:32;97309.28;;;-1.81;86.11
58018;BME280;43810;50.860;19.226;2022-12-11T12:26:41;97316.69;;;-1.88;86.14
58018;BME280;43810;50.860;19.226;2022-12-11T12:45:55;97285.75;;;-1.95;86.44
58018;BME280;43810;50.860;19.226;2022-12-11T12:48:25;97296.03;;;-2.04;86.63
58018;BME280;43810;50.860;19.226;2022-12-11T12:50:51;97291.91;;;-2.10;86.39
58018;BME280;43810;50.860;19.226;2022-12-11T12:53:23;97303.03;;;-2.28;86.44
58018;BME280;43810;50.860;19.226;2022-12-11T12:55:50;97309.91;;;-2.37;86.42
58018;BME280;43810;50.860;19.226;2022-12-11T13:03:47;97304.47;;;-2.41;86.59
58018;BME280;43810;50.860;19.226;2022-12-11T13:06:14;97296.22;;;-2.48;86.48
58018;BME280;43810;50.860;19.226;2022-12-11T13:08:46;97300.38;;;-2.47;86.79
58018;BME280;43810;50.860;19.226;2022-12-11T13:11:15;97307.16;;;-2.51;86.72
58018;BME280;43810;50.860;19.226;2022-12-11T13:13:45;97309.81;;;-2.56;86.75
58018;BME280;43810;50.860;19.226;2022-12-11T13:18:43;97308.19;;;-2.47;86.96
58018;BME280;43810;50.860;19.226;2022-12-11T13:21:41;97313.94;;;-2.50;86.94
58018;BME280;43810;50.860;19.226;2022-12-11T13:24:24;97310.59;;;-2.55;86.85
58018;BME280;43810;50.860;19.226;2022-12-11T13:26:50;97307.28;;;-2.61;86.99
58018;BME280;43810;50.860;19.226;2022-12-11T13:29:33;97319.66;;;-2.53;86.96
58018;BME280;43810;50.860;19.226;2022-12-11T13:34:38;97328.00;;;-2.56;86.89
58018;BME280;43810;50.860;19.226;2022-12-11T13:37:05;97329.06;;;-2.57;86.99
58018;BME280;43810;50.860;19.226;2022-12-11T13:39:34;97335.91;;;-2.66;86.97
58018;BME280;43810;50.860;19.226;2022-12-11T13:42:07;97334.34;;;-2.67;87.36
58018;BME280;43810;50.860;19.226;2022-12-11T13:44:46;97319.31;;;-2.70;87.48
58018;BME280;43810;50.860;19.226;2022-12-11T13:47:14;97330.97;;;-2.68;87.39
58018;BME280;43810;50.860;19.226;2022-12-11T13:49:45;97327.06;;;-2.65;87.54
58018;BME280;43810;50.860;19.226;2022-12-11T13:52:23;97326.97;;;-2.55;87.47
58018;BME280;43810;50.860;19.226;2022-12-11T13:54:52;97331.63;;;-2.52;87.17
58018;BME280;43810;50.860;19.226;2022-12-11T13:57:23;97329.03;;;-2.52;86.90
58018;BME280;43810;50.860;19.226;2022-12-11T13:59:52;97329.03;;;-2.52;87.01
58018;BME280;43810;50.860;19.226;2022-12-11T14:02:33;97339.69;;;-2.53;87.21
58018;BME280;43810;50.860;19.226;2022-12-11T14:05:04;97341.78;;;-2.55;87.32
58018;BME280;43810;50.860;19.226;2022-12-11T14:07:34;97329.03;;;-2.52;87.43
58018;BME280;43810;50.860;19.226;2022-12-11T14:10:05;97335.03;;;-2.56;87.29
58018;BME280;43810;50.860;19.226;2022-12-11T14:12:35;97332.72;;;-2.58;87.46
58018;BME280;43810;50.860;19.226;2022-12-11T14:15:02;97327.53;;;-2.58;87.79